Time;durP1;ratioP1;P1;durP2;ratioP2;P2;SDS_P1;SDS_P2;PMS_P1;PMS_P2;Temp;Humidity;BMP_temperature;BMP_pressure;BME280_temperature;BME280_humidity;BME280_pressure;Samples;Min_cycle;Max_cycle;Signal;HPM_P1;HPM_P2
2023/03/04 00:01:39;;;;;;;35.87;20.73;;;7.00;99.90;;;;;;4902715;29;20428;-87
2023/03/04 00:04:05;;;;;;;28.83;19.33;;;7.00;99.90;;;;;;4915409;29;20445;-87
2023/03/04 00:06:31;;;;;;;33.67;21.17;;;7.00;99.90;;;;;;4917737;29;20184;-87
2023/03/04 00:08:57;;;;;;;32.10;20.23;;;7.00;99.90;;;;;;4916805;29;20460;-87
2023/03/04 00:11:23;;;;;;;40.37;22.43;;;7.00;99.90;;;;;;4915910;29;20431;-87
2023/03/04 00:13:49;;;;;;;37.80;21.60;;;7.00;99.90;;;;;;4916823;29;20421;-86
2023/03/04 00:16:15;;;;;;;31.23;20.33;;;7.00;99.90;;;;;;4916134;29;20429;-86
2023/03/04 00:18:41;;;;;;;34.40;20.27;;;7.00;99.90;;;;;;4917272;29;20433;-86
2023/03/04 00:21:07;;;;;;;32.63;19.67;;;7.00;99.90;;;;;;4916581;29;20205;-86
2023/03/04 00:23:33;;;;;;;35.20;20.20;;;7.10;99.90;;;;;;4917747;29;20176;-86
2023/03/04 00:25:58;;;;;;;31.77;19.70;;;7.00;99.90;;;;;;4913879;29;20801;-86
2023/03/04 00:28:24;;;;;;;35.73;21.93;;;7.00;99.90;;;;;;4916959;29;20213;-86
2023/03/04 00:30:50;;;;;;;30.77;21.00;;;7.10;99.90;;;;;;4916448;29;20730;-87
2023/03/04 00:33:15;;;;;;;34.03;19.07;;;7.10;99.90;;;;;;4915383;29;20195;-86
2023/03/04 00:35:41;;;;;;;29.90;19.20;;;7.10;99.90;;;;;;4917369;29;20181;-86
2023/03/04 00:38:07;;;;;;;28.10;19.00;;;7.10;99.90;;;;;;4915250;29;20641;-87
2023/03/04 00:40:33;;;;;;;26.87;17.40;;;7.10;99.90;;;;;;4916620;29;20895;-87
2023/03/04 00:42:59;;;;;;;30.37;19.00;;;7.10;99.90;;;;;;4916179;29;20459;-87
2023/03/04 00:45:24;;;;;;;28.40;18.93;;;7.10;99.90;;;;;;4917282;29;20193;-87
2023/03/04 00:47:50;;;;;;;33.23;18.13;;;7.10;99.90;;;;;;4914802;29;20255;-87
2023/03/04 00:50:16;;;;;;;24.97;16.47;;;7.20;99.90;;;;;;4917027;29;20216;-87
2023/03/04 00:52:42;;;;;;;25.50;17.00;;;7.20;99.90;;;;;;4916508;29;20214;-87
2023/03/04 00:55:08;;;;;;;25.50;15.97;;;7.20;99.90;;;;;;4914445;29;20447;-87
2023/03/04 00:57:34;;;;;;;22.23;14.60;;;7.20;99.90;;;;;;4916805;29;20191;-87
2023/03/04 01:00:00;;;;;;;20.30;12.80;;;7.20;99.90;;;;;;4915674;29;20413;-87
2023/03/04 01:02:25;;;;;;;18.87;12.87;;;7.20;99.90;;;;;;4916499;29;20512;-87
2023/03/04 01:04:51;;;;;;;18.70;12.90;;;7.20;99.90;;;;;;4914477;29;20184;-87
2023/03/04 01:07:17;;;;;;;17.20;11.07;;;7.30;99.90;;;;;;4915597;29;20195;-87
2023/03/04 01:09:43;;;;;;;15.37;11.27;;;7.30;99.90;;;;;;4916633;29;20542;-86
2023/03/04 01:12:09;;;;;;;14.50;10.10;;;7.30;99.90;;;;;;4906955;29;20493;-86
2023/03/04 01:14:35;;;;;;;14.20;9.70;;;7.40;99.90;;;;;;4908400;29;20433;-86
2023/03/04 01:17:00;;;;;;;13.20;9.47;;;7.40;99.90;;;;;;4919706;29;20307;-86
2023/03/04 01:19:26;;;;;;;12.70;9.50;;;7.40;99.90;;;;;;4927807;29;20247;-86
2023/03/04 01:21:52;;;;;;;16.00;8.33;;;7.50;99.90;;;;;;4927383;29;20196;-86
2023/03/04 01:24:18;;;;;;;14.90;8.20;;;7.50;99.90;;;;;;4926800;29;20206;-86
2023/03/04 01:26:43;;;;;;;11.73;7.60;;;7.50;99.90;;;;;;4944414;29;20185;-86
2023/03/04 01:29:09;;;;;;;13.33;8.27;;;7.60;99.90;;;;;;4927394;29;20209;-86
2023/03/04 01:31:35;;;;;;;10.13;7.33;;;7.60;99.90;;;;;;4917971;29;20224;-87
2023/03/04 01:34:00;;;;;;;9.10;7.30;;;7.60;99.90;;;;;;4916776;29;20195;-87
2023/03/04 01:36:26;;;;;;;9.27;7.13;;;7.60;99.90;;;;;;4914240;29;20271;-87
2023/03/04 01:38:52;;;;;;;11.87;6.73;;;7.60;99.90;;;;;;4916400;29;20630;-87
2023/03/04 01:41:23;;;;;;;13.80;7.63;;;7.70;99.90;;;;;;4916182;29;20176;-86
2023/03/04 01:43:48;;;;;;;11.00;7.40;;;7.70;99.90;;;;;;4915442;29;20256;-86
2023/03/04 01:46:16;;;;;;;9.40;6.97;;;7.70;99.90;;;;;;4915920;29;20531;-87
2023/03/04 01:48:43;;;;;;;11.27;7.37;;;7.70;99.90;;;;;;4914812;29;20711;-87
2023/03/04 01:51:15;;;;;;;11.30;6.33;;;7.70;99.90;;;;;;4914977;29;21079;-87
2023/03/04 01:53:41;;;;;;;13.63;8.10;;;7.70;99.90;;;;;;4915181;29;20422;-87
2023/03/04 01:56:26;;;;;;;15.03;8.03;;;7.80;99.90;;;;;;4915484;29;20408;-87
2023/03/04 01:59:17;;;;;;;13.63;8.03;;;7.80;99.90;;;;;;4917159;29;20830;-87
2023/03/04 02:01:49;;;;;;;11.63;7.60;;;7.70;99.90;;;;;;4908302;29;20446;-86
2023/03/04 02:04:18;;;;;;;14.50;7.43;;;7.70;99.90;;;;;;4900539;29;20399;-86
2023/03/04 02:06:44;;;;;;;11.27;7.73;;;7.80;99.90;;;;;;4910395;29;20437;-87
2023/03/04 02:09:10;;;;;;;8.83;6.80;;;7.80;99.90;;;;;;4918565;29;20540;-87
2023/03/04 02:11:37;;;;;;;11.13;6.80;;;7.80;99.90;;;;;;4917888;29;20504;-87
2023/03/04 02:14:04;;;;;;;8.30;6.57;;;7.80;99.90;;;;;;4918063;29;20449;-87
2023/03/04 02:16:30;;;;;;;10.80;6.90;;;7.80;99.90;;;;;;4917932;29;20421;-87
2023/03/04 02:18:56;;;;;;;13.07;6.63;;;7.70;99.90;;;;;;4919133;29;20424;-86
2023/03/04 02:21:27;;;;;;;14.47;6.30;;;7.80;99.90;;;;;;4902299;29;20421;-87
2023/03/04 02:24:14;;;;;;;15.23;6.53;;;7.70;99.90;;;;;;4915670;29;20446;-85
2023/03/04 02:26:42;;;;;;;13.37;5.77;;;7.80;99.90;;;;;;4918123;29;20413;-86
2023/03/04 02:29:10;;;;;;;8.63;5.70;;;7.80;99.90;;;;;;4918388;29;20516;-86
2023/03/04 02:31:45;;;;;;;11.97;5.40;;;7.80;99.90;;;;;;4919134;29;20468;-87
2023/03/04 02:34:19;;;;;;;12.37;5.57;;;7.90;99.90;;;;;;4916989;29;20395;-87
2023/03/04 02:36:46;;;;;;;8.93;5.40;;;7.90;99.90;;;;;;4918887;29;20421;-86
2023/03/04 02:39:42;;;;;;;8.30;5.60;;;8.00;99.90;;;;;;4916610;29;20918;-87
2023/03/04 02:42:08;;;;;;;9.90;5.50;;;8.00;99.90;;;;;;4917558;29;20914;-86
2023/03/04 02:44:37;;;;;;;13.73;4.77;;;8.00;99.90;;;;;;4918869;29;20902;-87
2023/03/04 02:47:06;;;;;;;8.20;5.30;;;8.10;99.90;;;;;;4917046;29;20431;-87
2023/03/04 02:49:32;;;;;;;4.30;3.90;;;8.00;99.90;;;;;;4917232;29;20569;-87
2023/03/04 02:52:02;;;;;;;9.27;4.77;;;8.00;99.90;;;;;;4916674;29;20413;-87
2023/03/04 02:54:28;;;;;;;7.00;4.13;;;8.00;99.90;;;;;;4918762;29;20427;-87
2023/03/04 02:56:59;;;;;;;6.77;4.23;;;8.00;99.90;;;;;;4901713;29;20545;-87
2023/03/04 02:59:24;;;;;;;8.40;4.50;;;8.00;99.90;;;;;;4899341;29;20467;-87
2023/03/04 03:01:50;;;;;;;6.47;4.83;;;8.00;99.90;;;;;;4899617;29;20438;-87
2023/03/04 03:04:17;;;;;;;9.50;4.80;;;8.00;99.90;;;;;;4898752;29;20191;-87
2023/03/04 03:06:43;;;;;;;11.20;4.80;;;8.00;99.90;;;;;;4898137;29;20570;-87
2023/03/04 03:09:09;;;;;;;11.10;4.77;;;8.10;99.90;;;;;;4897565;29;20506;-87
2023/03/04 03:11:35;;;;;;;9.40;4.90;;;8.10;99.90;;;;;;4899478;29;20439;-87
2023/03/04 03:14:01;;;;;;;8.73;3.67;;;8.10;99.90;;;;;;4900308;29;20199;-87
2023/03/04 03:16:27;;;;;;;11.43;5.07;;;8.10;99.90;;;;;;4917933;29;20550;-87
2023/03/04 03:18:53;;;;;;;9.67;4.10;;;8.00;99.90;;;;;;4918220;29;20434;-86
2023/03/04 03:21:18;;;;;;;16.03;5.33;;;8.00;99.90;;;;;;4917800;29;20419;-86
2023/03/04 03:23:44;;;;;;;9.53;4.27;;;8.00;99.90;;;;;;4918182;29;20186;-86
2023/03/04 03:26:10;;;;;;;12.67;4.80;;;8.00;99.90;;;;;;4917361;29;20178;-86
2023/03/04 03:28:35;;;;;;;14.23;4.87;;;8.10;99.90;;;;;;4917893;29;20183;-87
2023/03/04 03:31:01;;;;;;;6.53;3.97;;;8.10;99.90;;;;;;4917410;29;20229;-86
2023/03/04 03:33:27;;;;;;;6.60;5.67;;;8.10;99.90;;;;;;4917199;29;20178;-86
2023/03/04 03:35:53;;;;;;;8.63;4.80;;;8.00;99.90;;;;;;4917902;29;20414;-86
2023/03/04 03:38:19;;;;;;;7.00;4.77;;;8.00;99.90;;;;;;4899437;29;20627;-86
2023/03/04 03:40:45;;;;;;;13.77;4.70;;;8.00;99.90;;;;;;4917800;29;20414;-86
2023/03/04 03:43:10;;;;;;;6.67;4.30;;;8.10;99.90;;;;;;4916937;29;20311;-86
2023/03/04 03:45:36;;;;;;;8.37;4.40;;;8.10;99.90;;;;;;4916955;29;20490;-87
2023/03/04 03:48:02;;;;;;;9.17;4.70;;;8.10;99.90;;;;;;4915698;29;20190;-86
2023/03/04 03:50:28;;;;;;;8.60;4.50;;;8.10;99.90;;;;;;4917517;29;20573;-87
2023/03/04 03:52:54;;;;;;;7.97;5.00;;;8.10;99.90;;;;;;4917228;29;20442;-86
2023/03/04 03:55:21;;;;;;;5.30;4.10;;;8.10;99.90;;;;;;4917821;29;20466;-87
2023/03/04 03:57:47;;;;;;;7.20;4.57;;;8.10;99.90;;;;;;4916225;29;20415;-87
2023/03/04 04:00:15;;;;;;;9.47;4.20;;;8.10;99.90;;;;;;4916089;29;20823;-87
2023/03/04 04:02:41;;;;;;;9.40;4.17;;;8.10;99.90;;;;;;4900449;29;20587;-87
2023/03/04 04:05:08;;;;;;;8.70;4.10;;;8.10;99.90;;;;;;4916189;29;20437;-87
2023/03/04 04:07:34;;;;;;;9.60;4.20;;;8.10;99.90;;;;;;4917523;29;20760;-87
2023/03/04 04:10:00;;;;;;;7.53;3.97;;;8.10;99.90;;;;;;4915454;29;20472;-86
2023/03/04 04:12:25;;;;;;;9.30;3.60;;;8.10;99.90;;;;;;4917681;29;20418;-87
2023/03/04 04:14:51;;;;;;;7.83;4.03;;;8.10;99.90;;;;;;4916697;29;20528;-87
2023/03/04 04:17:17;;;;;;;15.47;4.73;;;8.10;99.90;;;;;;4916585;29;20175;-87
2023/03/04 04:19:42;;;;;;;7.10;3.77;;;8.10;99.90;;;;;;4917075;29;20178;-87
2023/03/04 04:22:15;;;;;;;9.90;4.47;;;8.10;99.90;;;;;;4916035;29;20190;-87
2023/03/04 04:24:41;;;;;;;8.80;4.10;;;8.10;99.90;;;;;;4917160;29;20619;-87
2023/03/04 04:27:06;;;;;;;12.37;4.07;;;8.10;99.90;;;;;;4915469;29;20441;-86
2023/03/04 04:29:32;;;;;;;8.57;4.40;;;8.10;99.90;;;;;;4915957;29;20474;-87
2023/03/04 04:31:58;;;;;;;8.53;3.77;;;8.10;99.90;;;;;;4916823;29;20205;-87
2023/03/04 04:34:24;;;;;;;8.53;4.07;;;8.20;99.90;;;;;;4916007;29;20190;-87
2023/03/04 04:36:50;;;;;;;5.60;3.70;;;8.20;99.90;;;;;;4899772;29;20817;-86
2023/03/04 04:39:16;;;;;;;8.57;3.83;;;8.20;99.90;;;;;;4915811;29;20422;-86
2023/03/04 04:41:43;;;;;;;5.10;3.17;;;8.20;99.90;;;;;;4916664;29;20418;-86
2023/03/04 04:44:10;;;;;;;7.70;4.20;;;8.10;99.90;;;;;;4915456;29;20233;-86
2023/03/04 04:46:38;;;;;;;10.93;3.97;;;8.20;99.90;;;;;;4915854;29;20433;-85
2023/03/04 04:49:04;;;;;;;9.10;3.93;;;8.10;99.90;;;;;;4915784;29;20957;-87
2023/03/04 04:51:31;;;;;;;9.10;3.50;;;8.10;99.90;;;;;;4915309;29;20451;-86
2023/03/04 04:53:58;;;;;;;5.80;4.00;;;8.10;99.90;;;;;;4915745;29;20435;-87
2023/03/04 04:56:25;;;;;;;8.90;4.63;;;8.10;99.90;;;;;;4898372;29;20965;-86
2023/03/04 04:58:56;;;;;;;5.10;3.70;;;8.30;99.90;;;;;;4916559;29;20421;-87
2023/03/04 05:01:22;;;;;;;8.97;3.80;;;8.10;99.90;;;;;;4914516;29;20450;-86
2023/03/04 05:03:49;;;;;;;12.93;4.97;;;8.10;99.90;;;;;;4915103;29;20426;-86
2023/03/04 05:06:15;;;;;;;13.20;4.07;;;8.20;99.90;;;;;;4915507;29;20915;-86
2023/03/04 05:08:41;;;;;;;10.47;4.10;;;8.20;99.90;;;;;;4916267;29;20493;-86
2023/03/04 05:11:07;;;;;;;10.07;4.17;;;8.20;99.90;;;;;;4914757;29;20927;-86
2023/03/04 05:13:34;;;;;;;7.67;3.50;;;8.20;99.90;;;;;;4914112;29;20257;-87
2023/03/04 05:16:00;;;;;;;8.93;3.43;;;8.20;99.90;;;;;;4908143;29;20489;-87
2023/03/04 05:18:26;;;;;;;8.50;4.10;;;8.20;99.90;;;;;;4913815;29;20927;-86
2023/03/04 05:21:00;;;;;;;8.50;3.73;;;8.20;99.90;;;;;;4914968;29;20422;-86
2023/03/04 05:23:28;;;;;;;8.37;4.47;;;8.20;99.90;;;;;;4914943;29;20479;-86
2023/03/04 05:25:54;;;;;;;7.27;4.00;;;8.20;99.90;;;;;;4915995;29;20410;-86
2023/03/04 05:28:20;;;;;;;7.80;3.73;;;8.20;99.90;;;;;;4914727;29;20430;-87
2023/03/04 05:30:46;;;;;;;8.93;3.73;;;8.20;99.90;;;;;;4915895;29;20474;-86
2023/03/04 05:33:14;;;;;;;8.40;3.73;;;8.10;99.90;;;;;;4919325;29;20260;-87
2023/03/04 05:35:42;;;;;;;6.57;4.43;;;8.20;99.90;;;;;;4920275;29;20477;-86
2023/03/04 05:38:10;;;;;;;5.63;4.30;;;8.20;99.90;;;;;;4918105;29;20852;-86
2023/03/04 05:40:36;;;;;;;8.90;3.40;;;8.10;99.90;;;;;;4919867;29;20420;-86
2023/03/04 05:43:03;;;;;;;5.10;3.50;;;8.20;99.90;;;;;;4919363;29;20451;-87
2023/03/04 05:45:32;;;;;;;8.53;3.90;;;8.20;99.90;;;;;;4918613;29;20913;-87
2023/03/04 05:47:58;;;;;;;7.17;3.23;;;8.20;99.90;;;;;;4919144;29;20478;-87
2023/03/04 05:50:23;;;;;;;7.10;3.63;;;8.20;99.90;;;;;;4917608;29;20481;-87
2023/03/04 05:52:49;;;;;;;7.17;3.53;;;8.20;99.90;;;;;;4919723;29;20175;-86
2023/03/04 05:55:16;;;;;;;5.17;3.57;;;8.20;99.90;;;;;;4918060;29;20190;-86
2023/03/04 05:57:42;;;;;;;8.00;3.50;;;8.20;99.90;;;;;;4918537;29;20182;-86
2023/03/04 06:00:09;;;;;;;4.67;3.70;;;8.20;99.90;;;;;;4917615;29;20414;-86
2023/03/04 06:02:35;;;;;;;7.20;3.50;;;8.20;99.90;;;;;;4919548;29;20414;-86
2023/03/04 06:05:02;;;;;;;9.80;4.47;;;8.20;99.90;;;;;;4919164;29;20890;-87
2023/03/04 06:07:28;;;;;;;12.10;4.03;;;8.20;99.90;;;;;;4917426;29;20886;-87
2023/03/04 06:09:54;;;;;;;7.20;4.20;;;8.20;99.90;;;;;;4901867;29;20481;-88
2023/03/04 06:12:19;;;;;;;9.20;3.47;;;8.20;99.90;;;;;;4898499;29;20193;-87
2023/03/04 06:14:48;;;;;;;6.57;3.50;;;8.20;99.90;;;;;;4901359;29;20191;-87
2023/03/04 06:17:14;;;;;;;10.07;4.27;;;8.20;99.90;;;;;;4917267;29;20429;-87
2023/03/04 06:19:42;;;;;;;10.57;4.03;;;8.20;99.90;;;;;;4919157;29;20431;-86
2023/03/04 06:22:09;;;;;;;7.47;3.80;;;8.20;99.90;;;;;;4916602;29;20573;-87
2023/03/04 06:24:35;;;;;;;5.53;3.60;;;8.30;99.90;;;;;;4919177;29;20417;-86
2023/03/04 06:27:01;;;;;;;6.43;4.63;;;8.20;99.90;;;;;;4919454;29;20414;-87
2023/03/04 06:29:26;;;;;;;8.70;4.37;;;8.20;99.90;;;;;;4918182;29;21077;-87
2023/03/04 06:31:52;;;;;;;8.70;4.90;;;8.20;99.90;;;;;;4918695;29;20441;-87
2023/03/04 06:34:18;;;;;;;6.03;4.57;;;8.30;99.90;;;;;;4903095;29;20711;-87
2023/03/04 06:36:44;;;;;;;10.23;3.83;;;8.20;99.90;;;;;;4899163;29;20420;-87
2023/03/04 06:39:10;;;;;;;8.73;4.33;;;8.20;99.90;;;;;;4899225;29;20400;-86
2023/03/04 06:41:36;;;;;;;13.20;4.23;;;8.20;99.90;;;;;;4899592;29;20190;-87
2023/03/04 06:44:03;;;;;;;8.50;4.10;;;8.20;99.90;;;;;;4899996;29;20812;-87
2023/03/04 06:46:28;;;;;;;10.10;4.07;;;8.20;99.90;;;;;;4920053;29;20224;-87
2023/03/04 06:48:55;;;;;;;10.97;3.97;;;8.20;99.90;;;;;;4927196;29;20437;-87
2023/03/04 06:51:20;;;;;;;13.27;3.60;;;8.20;99.90;;;;;;4916824;29;20186;-88
2023/03/04 06:53:46;;;;;;;10.63;4.10;;;8.20;99.90;;;;;;4920153;29;20434;-86
2023/03/04 06:56:15;;;;;;;10.73;5.30;;;8.20;99.90;;;;;;4920116;29;20186;-86
2023/03/04 06:58:42;;;;;;;7.00;4.97;;;8.20;99.90;;;;;;4917943;29;20192;-86
2023/03/04 07:01:16;;;;;;;8.43;3.50;;;8.20;99.90;;;;;;4917085;29;20976;-87
2023/03/04 07:03:43;;;;;;;4.33;3.93;;;8.20;99.90;;;;;;4899598;29;20423;-86
2023/03/04 07:06:10;;;;;;;3.97;3.60;;;8.20;99.90;;;;;;4916701;29;20926;-86
2023/03/04 07:08:36;;;;;;;8.10;3.97;;;8.30;99.90;;;;;;4916987;29;20425;-86
2023/03/04 07:11:02;;;;;;;6.80;4.50;;;8.30;99.90;;;;;;4916809;29;20517;-86
2023/03/04 07:13:28;;;;;;;9.17;3.87;;;8.20;99.90;;;;;;4917803;29;20419;-87
2023/03/04 07:15:54;;;;;;;5.73;4.50;;;8.30;99.90;;;;;;4916777;29;20914;-87
2023/03/04 07:18:19;;;;;;;8.27;4.30;;;8.30;99.90;;;;;;4916608;29;20419;-87
2023/03/04 07:20:45;;;;;;;5.30;4.40;;;8.30;99.90;;;;;;4918141;29;20635;-86
2023/03/04 07:23:13;;;;;;;5.60;4.07;;;8.30;99.90;;;;;;4915873;29;20638;-87
2023/03/04 07:25:39;;;;;;;8.43;3.80;;;8.30;99.90;;;;;;4915476;29;20528;-87
2023/03/04 07:28:04;;;;;;;6.80;4.20;;;8.30;99.90;;;;;;4917685;29;20417;-88
2023/03/04 07:30:30;;;;;;;8.47;5.03;;;8.30;99.90;;;;;;4911471;29;20232;-88
2023/03/04 07:32:57;;;;;;;12.67;4.07;;;8.30;99.90;;;;;;4914727;29;20185;-88
2023/03/04 07:35:22;;;;;;;10.40;4.10;;;8.40;99.90;;;;;;4912591;29;20182;-88
2023/03/04 07:37:48;;;;;;;6.67;4.10;;;8.40;99.90;;;;;;4910353;29;20431;-88
2023/03/04 07:40:14;;;;;;;5.77;4.13;;;8.40;99.90;;;;;;4907959;29;20183;-83
2023/03/04 07:42:40;;;;;;;7.60;4.50;;;8.30;99.90;;;;;;4907680;29;20226;-83
2023/03/04 07:45:06;;;;;;;6.47;4.07;;;8.30;99.90;;;;;;4903932;29;20458;-86
2023/03/04 07:47:32;;;;;;;7.93;4.80;;;8.40;99.90;;;;;;4889038;29;20198;-90
2023/03/04 07:49:58;;;;;;;7.00;4.00;;;8.70;99.90;;;;;;4911204;29;20474;-89
2023/03/04 07:52:23;;;;;;;8.17;3.93;;;9.30;99.90;;;;;;4917201;29;20179;-91
2023/03/04 07:54:49;;;;;;;5.57;4.30;;;10.00;99.90;;;;;;4916055;29;20183;-89
2023/03/04 07:57:15;;;;;;;5.43;4.57;;;10.60;99.90;;;;;;4916004;29;20696;-88
2023/03/04 07:59:40;;;;;;;5.90;4.20;;;11.10;99.90;;;;;;4914767;29;20359;-88
2023/03/04 08:02:06;;;;;;;6.63;3.53;;;11.50;99.90;;;;;;4917282;29;20200;-87
2023/03/04 08:04:32;;;;;;;6.60;4.40;;;11.70;99.10;;;;;;4912944;29;20194;-88
2023/03/04 08:06:58;;;;;;;8.50;4.50;;;12.10;99.90;;;;;;4912282;29;20197;-89
2023/03/04 08:09:23;;;;;;;5.03;4.10;;;12.30;97.30;;;;;;4908576;29;20545;-87
2023/03/04 08:11:49;;;;;;;6.63;4.70;;;12.50;97.40;;;;;;4912008;29;20193;-89
2023/03/04 08:14:15;;;;;;;7.47;4.47;;;12.70;99.40;;;;;;4916701;29;20213;-88
2023/03/04 08:16:41;;;;;;;4.50;3.60;;;13.00;96.60;;;;;;4916117;29;20188;-89
2023/03/04 08:19:07;;;;;;;8.20;4.53;;;13.20;94.90;;;;;;4915995;29;20435;-87
2023/03/04 08:21:33;;;;;;;9.30;4.27;;;13.40;94.00;;;;;;4916272;29;20319;-88
2023/03/04 08:24:03;;;;;;;5.53;4.30;;;13.50;93.60;;;;;;4916308;29;20869;-86
2023/03/04 08:26:34;;;;;;;5.87;3.60;;;13.60;94.90;;;;;;4916274;29;20480;-88
2023/03/04 08:29:02;;;;;;;9.30;5.20;;;13.70;93.10;;;;;;4917087;29;20749;-88
2023/03/04 08:31:27;;;;;;;5.50;4.30;;;13.70;91.30;;;;;;4913384;29;20496;-90
2023/03/04 08:33:53;;;;;;;3.87;3.47;;;13.70;91.40;;;;;;4925671;29;20495;-87
2023/03/04 08:36:21;;;;;;;4.77;4.17;;;13.70;90.90;;;;;;4923815;29;20200;-87
2023/03/04 08:38:47;;;;;;;4.87;4.17;;;13.70;90.80;;;;;;4919690;29;20556;-86
2023/03/04 08:41:14;;;;;;;7.13;4.10;;;13.80;90.40;;;;;;4912779;29;20519;-85
2023/03/04 08:43:40;;;;;;;4.77;3.53;;;14.00;90.80;;;;;;4923020;29;20301;-88
2023/03/04 08:46:07;;;;;;;243.37;129.83;;;14.10;90.00;;;;;;4916020;29;20454;-87
2023/03/04 08:48:36;;;;;;;143.80;93.33;;;14.10;87.90;;;;;;4914708;29;20433;-84
2023/03/04 08:51:13;;;;;;;14.30;10.27;;;13.80;87.30;;;;;;4915286;29;20969;-84
2023/03/04 08:53:39;;;;;;;5.90;4.00;;;13.40;87.80;;;;;;4916118;29;20401;-87
2023/03/04 08:56:06;;;;;;;6.17;3.70;;;13.10;89.70;;;;;;4914453;29;20780;-88
2023/03/04 08:58:31;;;;;;;4.80;3.40;;;12.80;90.00;;;;;;4914611;29;21331;-87
2023/03/04 09:00:59;;;;;;;5.00;3.37;;;12.50;90.20;;;;;;4911371;29;20443;-87
2023/03/04 09:03:25;;;;;;;4.83;3.80;;;12.30;90.80;;;;;;4900666;29;20519;-87
2023/03/04 09:05:51;;;;;;;4.07;2.93;;;12.00;91.20;;;;;;4902339;29;20455;-87
2023/03/04 09:08:17;;;;;;;4.67;3.40;;;11.80;92.00;;;;;;4917485;29;20905;-88
2023/03/04 09:10:44;;;;;;;340.23;171.10;;;11.50;92.10;;;;;;4912719;29;20497;-88
2023/03/04 09:13:10;;;;;;;24.33;14.73;;;11.30;92.90;;;;;;4917688;29;20450;-86
2023/03/04 09:15:37;;;;;;;4.20;3.20;;;11.20;93.60;;;;;;4914440;29;20509;-86
2023/03/04 09:18:04;;;;;;;5.47;3.50;;;11.10;93.80;;;;;;4916320;29;20418;-85
2023/03/04 09:20:33;;;;;;;3.80;3.40;;;10.90;94.60;;;;;;4914945;29;20441;-85
2023/03/04 09:22:59;;;;;;;3.43;3.00;;;10.70;95.30;;;;;;4916321;29;20432;-83
2023/03/04 09:25:25;;;;;;;81.37;57.23;;;10.60;95.60;;;;;;4916357;29;20797;-86
2023/03/04 09:27:53;;;;;;;15.53;10.90;;;10.50;96.40;;;;;;4915721;29;20470;-84
2023/03/04 09:30:19;;;;;;;5.07;3.90;;;10.50;96.70;;;;;;4915488;29;20214;-84
2023/03/04 09:32:45;;;;;;;4.93;3.47;;;10.40;97.60;;;;;;4899785;29;20433;-84
2023/03/04 09:35:10;;;;;;;4.13;3.73;;;10.30;97.40;;;;;;4896883;29;20463;-83
2023/03/04 09:37:36;;;;;;;4.57;3.70;;;10.10;98.10;;;;;;4902643;29;20450;-84
2023/03/04 09:40:03;;;;;;;8.00;3.30;;;10.00;99.60;;;;;;4912922;29;20186;-85
2023/03/04 09:42:45;;;;;;;5.23;3.87;;;10.00;99.20;;;;;;4910195;29;20236;-85
2023/03/04 09:45:22;;;;;;;8.10;5.47;;;9.90;99.90;;;;;;4911966;29;20403;-84
2023/03/04 09:47:51;;;;;;;4.93;4.50;;;9.80;99.90;;;;;;4922508;29;20584;-84
2023/03/04 09:50:18;;;;;;;12.93;5.90;;;9.70;99.90;;;;;;4898461;29;20472;-84
2023/03/04 09:52:53;;;;;;;6.87;5.77;;;9.60;99.90;;;;;;4908230;29;20442;-83
2023/03/04 09:55:38;;;;;;;6.20;5.60;;;9.60;99.90;;;;;;4911327;29;20423;-84
2023/03/04 09:58:36;;;;;;;7.37;5.67;;;9.60;99.90;;;;;;4910476;29;20531;-84
2023/03/04 10:01:28;;;;;;;10.70;6.33;;;9.60;99.90;;;;;;4910400;29;20491;-83
2023/03/04 10:04:00;;;;;;;10.17;6.97;;;9.50;99.90;;;;;;4910911;29;20438;-83
2023/03/04 10:06:27;;;;;;;8.27;7.27;;;9.50;99.90;;;;;;4908384;29;20446;-84
2023/03/04 10:08:53;;;;;;;7.83;6.63;;;9.50;99.90;;;;;;4915960;29;20426;-83
2023/03/04 10:11:34;;;;;;;11.37;7.77;;;9.50;99.90;;;;;;4913510;29;20887;-86
2023/03/04 10:14:21;;;;;;;9.30;7.37;;;9.50;99.90;;;;;;4915656;29;20194;-83
2023/03/04 10:17:02;;;;;;;7.83;7.03;;;9.50;99.90;;;;;;4916245;29;20450;-83
2023/03/04 10:19:55;;;;;;;13.23;8.70;;;9.50;99.90;;;;;;4921254;29;20953;-90
2023/03/04 10:22:20;;;;;;;61.90;37.97;;;9.50;99.90;;;;;;4899348;29;20942;-89
2023/03/04 10:24:47;;;;;;;25.00;19.10;;;9.50;99.90;;;;;;4916394;29;20431;-89
2023/03/04 10:27:16;;;;;;;14.10;10.80;;;9.50;99.90;;;;;;4902614;29;20536;-89
2023/03/04 10:29:43;;;;;;;16.83;10.70;;;9.50;99.90;;;;;;4904736;29;20462;-87
2023/03/04 10:32:17;;;;;;;11.30;8.97;;;9.40;99.90;;;;;;4917725;29;20936;-88
2023/03/04 10:34:43;;;;;;;12.33;10.03;;;9.50;99.90;;;;;;4914405;29;20425;-89
2023/03/04 10:37:10;;;;;;;13.30;10.70;;;9.50;99.90;;;;;;4918738;29;20944;-89
2023/03/04 10:39:45;;;;;;;12.00;9.90;;;9.40;99.90;;;;;;4906329;29;20432;-88
2023/03/04 10:42:13;;;;;;;10.30;8.80;;;9.50;99.90;;;;;;4910763;29;20446;-89
2023/03/04 10:44:58;;;;;;;9.50;8.60;;;9.60;99.90;;;;;;4917829;29;20502;-88
2023/03/04 10:47:26;;;;;;;9.83;8.80;;;9.60;99.90;;;;;;4916848;29;20774;-88
2023/03/04 10:49:58;;;;;;;9.43;8.50;;;9.60;99.90;;;;;;4907862;29;20471;-89
2023/03/04 10:52:28;;;;;;;9.67;8.67;;;9.60;99.90;;;;;;4916599;29;20415;-85
2023/03/04 10:55:01;;;;;;;12.97;7.43;;;9.80;99.90;;;;;;4912720;29;20871;-84
2023/03/04 10:57:40;;;;;;;8.30;7.40;;;9.70;99.90;;;;;;4917278;29;20479;-85
2023/03/04 11:00:30;;;;;;;8.80;7.73;;;9.70;99.90;;;;;;4919273;29;20470;-85
2023/03/04 11:03:21;;;;;;;8.27;7.40;;;9.70;99.90;;;;;;4928466;29;20862;-82
2023/03/04 11:05:47;;;;;;;9.27;7.43;;;9.80;99.90;;;;;;4911716;29;20442;-84
2023/03/04 11:08:18;;;;;;;10.10;7.73;;;9.70;99.90;;;;;;4932360;29;20507;-83
2023/03/04 11:10:44;;;;;;;10.43;7.80;;;9.70;99.90;;;;;;4917467;29;20245;-84
2023/03/04 11:13:18;;;;;;;11.97;7.47;;;9.60;99.90;;;;;;4917258;29;20538;-83
2023/03/04 11:16:20;;;;;;;8.03;7.20;;;9.60;99.90;;;;;;4906906;29;20243;-83
2023/03/04 11:18:53;;;;;;;8.20;6.73;;;9.60;99.90;;;;;;4916772;29;20440;-83
2023/03/04 11:21:22;;;;;;;9.97;7.53;;;9.70;99.90;;;;;;4918251;29;20456;-89
2023/03/04 11:23:56;;;;;;;8.90;7.23;;;9.60;99.90;;;;;;4918193;29;20420;-83
2023/03/04 11:26:50;;;;;;;8.40;7.20;;;9.70;99.90;;;;;;4917735;29;20503;-83
2023/03/04 11:29:42;;;;;;;10.40;8.00;;;9.70;99.90;;;;;;4915741;29;20978;-82
2023/03/04 11:32:31;;;;;;;12.77;9.07;;;9.60;99.90;;;;;;4913317;29;20917;-83
2023/03/04 11:35:17;;;;;;;10.20;7.87;;;9.60;99.90;;;;;;4903660;29;20493;-82
2023/03/04 11:38:14;;;;;;;14.10;9.17;;;9.50;99.90;;;;;;4916679;29;20411;-83
2023/03/04 11:40:44;;;;;;;11.40;8.37;;;9.50;99.90;;;;;;4913429;29;21095;-83
2023/03/04 11:43:24;;;;;;;10.33;8.43;;;9.50;99.90;;;;;;4899459;29;20475;-82
2023/03/04 11:46:08;;;;;;;11.40;9.07;;;9.40;99.90;;;;;;4931648;29;20445;-82
2023/03/04 11:48:43;;;;;;;12.63;8.60;;;9.40;99.90;;;;;;4917453;29;20423;-83
2023/03/04 11:51:18;;;;;;;10.23;8.60;;;9.40;99.90;;;;;;4918007;29;20491;-85
2023/03/04 11:53:47;;;;;;;10.37;9.20;;;9.40;99.90;;;;;;4899605;29;20430;-85
2023/03/04 11:56:51;;;;;;;9.37;8.57;;;9.50;99.90;;;;;;4915700;29;20493;-86
2023/03/04 11:59:32;;;;;;;9.63;8.57;;;9.60;99.90;;;;;;4913897;29;20441;-84
2023/03/04 12:02:10;;;;;;;10.07;8.70;;;9.60;99.90;;;;;;4914929;29;20439;-84
2023/03/04 12:05:11;;;;;;;9.57;8.20;;;9.70;99.90;;;;;;4912251;29;20434;-85
2023/03/04 12:08:14;;;;;;;9.30;8.30;;;9.70;99.90;;;;;;4917254;29;20521;-86
2023/03/04 12:10:43;;;;;;;9.50;8.60;;;9.70;99.90;;;;;;4919054;29;20461;-88
2023/03/04 12:13:41;;;;;;;9.30;8.20;;;9.80;99.90;;;;;;4920972;29;20447;-84
2023/03/04 12:16:25;;;;;;;9.07;8.17;;;9.80;99.90;;;;;;4921933;29;20440;-85
2023/03/04 12:19:39;;;;;;;9.37;8.00;;;9.80;99.90;;;;;;4919427;29;20438;-88
2023/03/04 12:22:25;;;;;;;9.37;8.03;;;9.80;99.90;;;;;;4894485;29;20502;-87
2023/03/04 12:25:12;;;;;;;8.10;6.87;;;9.80;99.90;;;;;;4908583;29;20439;-83
2023/03/04 12:28:02;;;;;;;8.17;7.43;;;9.80;99.90;;;;;;4912819;29;20428;-87
2023/03/04 12:30:40;;;;;;;11.10;8.40;;;9.80;99.90;;;;;;4913652;29;20456;-88
2023/03/04 12:33:25;;;;;;;9.50;7.73;;;9.80;99.90;;;;;;4917887;29;20951;-88
2023/03/04 12:36:14;;;;;;;9.70;8.70;;;9.80;99.90;;;;;;4917060;29;20790;-88
2023/03/04 12:39:13;;;;;;;9.30;8.33;;;9.80;99.90;;;;;;4917635;29;20395;-88
2023/03/04 12:42:02;;;;;;;8.70;7.90;;;9.80;99.90;;;;;;4918178;29;20426;-88
2023/03/04 12:44:43;;;;;;;9.03;8.13;;;9.90;99.90;;;;;;4915206;29;20531;-83
2023/03/04 12:47:26;;;;;;;9.80;8.80;;;9.90;99.90;;;;;;4908170;29;20476;-85
2023/03/04 12:50:10;;;;;;;10.03;9.03;;;9.90;99.90;;;;;;4931388;29;20493;-84
2023/03/04 12:53:29;;;;;;;10.83;8.53;;;10.00;99.90;;;;;;4918193;29;20399;-85
2023/03/04 12:55:57;;;;;;;9.50;8.50;;;10.00;99.90;;;;;;4884688;29;20470;-85
2023/03/04 12:58:30;;;;;;;9.80;7.70;;;10.00;99.90;;;;;;4915704;29;20786;-85
2023/03/04 13:01:11;;;;;;;9.10;6.40;;;10.00;99.90;;;;;;4917166;29;20415;-85
2023/03/04 13:04:07;;;;;;;6.93;6.33;;;10.00;99.90;;;;;;4914432;29;20431;-85
2023/03/04 13:06:42;;;;;;;7.80;7.00;;;10.00;99.90;;;;;;4913229;29;20433;-85